Time;durP1;ratioP1;P1;durP2;ratioP2;P2;SDS_P1;SDS_P2;PMS_P1;PMS_P2;Temp;Humidity;BMP_temperature;BMP_pressure;BME280_temperature;BME280_humidity;BME280_pressure;Samples;Min_cycle;Max_cycle;Signal;HPM_P1;HPM_P2
2024/01/27 00:01:14;;;;;;;12.75;2.40;;;;;;;4.72;100.00;102334.31;5015173;28;20047;-84
2024/01/27 00:03:41;;;;;;;11.35;2.47;;;;;;;4.72;100.00;102334.31;5025769;28;20516;-83
2024/01/27 00:06:07;;;;;;;9.32;2.90;;;;;;;4.73;100.00;102334.41;5047559;28;20136;-84
2024/01/27 00:08:43;;;;;;;10.73;2.83;;;;;;;4.76;100.00;102331.94;5045788;28;20056;-84
2024/01/27 00:11:12;;;;;;;10.90;3.72;;;;;;;4.81;100.00;102345.13;5034974;28;20045;-84
2024/01/27 00:13:42;;;;;;;10.15;2.78;;;;;;;4.79;100.00;102349.34;5016687;28;20103;-83
2024/01/27 00:16:12;;;;;;;11.82;2.95;;;;;;;4.81;100.00;102347.72;5017117;28;20714;-82
2024/01/27 00:18:43;;;;;;;30.60;2.65;;;;;;;4.79;100.00;102355.41;5048406;28;20069;-83
2024/01/27 00:21:10;;;;;;;13.10;2.67;;;;;;;4.78;100.00;102361.44;5041774;28;20124;-83
2024/01/27 00:23:36;;;;;;;18.90;3.30;;;;;;;4.79;100.00;102362.31;5048099;28;20052;-85
2024/01/27 00:26:03;;;;;;;19.73;2.55;;;;;;;4.80;100.00;102364.09;5037721;28;20045;-82
2024/01/27 00:28:30;;;;;;;19.73;4.90;;;;;;;4.81;100.00;102363.28;5068357;28;20111;-84
2024/01/27 00:30:57;;;;;;;11.02;3.08;;;;;;;4.82;100.00;102356.38;5023664;28;20122;-83
2024/01/27 00:33:23;;;;;;;10.23;4.15;;;;;;;4.82;100.00;102361.56;5053059;28;20052;-84
2024/01/27 00:35:53;;;;;;;14.23;3.42;;;;;;;4.83;100.00;102359.03;5051569;28;20048;-83
2024/01/27 00:38:23;;;;;;;16.70;3.17;;;;;;;4.87;100.00;102368.72;5066747;28;20048;-84
2024/01/27 00:40:51;;;;;;;13.43;4.00;;;;;;;4.85;100.00;102370.38;5072696;28;20040;-83
2024/01/27 00:43:18;;;;;;;14.30;2.53;;;;;;;4.86;100.00;102363.47;5054957;28;20373;-84
2024/01/27 00:45:49;;;;;;;21.92;4.05;;;;;;;4.87;100.00;102365.25;5049779;28;20055;-83
2024/01/27 00:48:16;;;;;;;16.63;3.15;;;;;;;4.88;100.00;102365.28;5051951;28;20412;-83
2024/01/27 00:50:42;;;;;;;19.10;4.07;;;;;;;4.88;100.00;102362.72;5037998;28;20450;-84
2024/01/27 00:53:09;;;;;;;18.00;3.92;;;;;;;4.86;100.00;102366.94;5084060;28;20049;-83
2024/01/27 00:55:36;;;;;;;18.55;3.95;;;;;;;4.87;100.00;102367.84;5051575;28;20051;-82
2024/01/27 00:58:02;;;;;;;12.45;3.10;;;;;;;4.87;100.00;102379.09;5041449;28;20041;-84
2024/01/27 01:00:31;;;;;;;17.02;3.53;;;;;;;4.87;100.00;102389.47;5052650;28;20512;-83
2024/01/27 01:02:58;;;;;;;17.10;4.37;;;;;;;4.80;100.00;102380.53;4333859;28;10000462;-84
2024/01/27 01:05:25;;;;;;;13.35;2.83;;;;;;;4.69;100.00;102379.19;5070083;28;20106;-82
2024/01/27 01:07:52;;;;;;;13.55;2.85;;;;;;;4.58;100.00;102386.50;5045560;28;20058;-82
2024/01/27 01:10:18;;;;;;;16.25;3.95;;;;;;;4.46;100.00;102391.19;5032986;28;20037;-82
2024/01/27 01:12:45;;;;;;;25.35;5.43;;;;;;;4.38;100.00;102387.34;5066026;28;20044;-83
2024/01/27 01:15:12;;;;;;;16.48;4.43;;;;;;;4.27;100.00;102382.56;5067736;28;20048;-83
2024/01/27 01:17:39;;;;;;;18.50;2.92;;;;;;;4.19;100.00;102376.16;5033770;28;20063;-83
2024/01/27 01:20:07;;;;;;;19.85;4.45;;;;;;;4.07;100.00;102376.47;5051408;28;20127;-82
2024/01/27 01:22:34;;;;;;;11.13;2.50;;;;;;;3.94;100.00;102385.41;5066868;28;20118;-82
2024/01/27 01:25:02;;;;;;;13.52;4.35;;;;;;;3.87;100.00;102392.81;5033508;28;20118;-83
2024/01/27 01:27:28;;;;;;;17.65;3.97;;;;;;;3.77;100.00;102396.69;5038425;28;20051;-84
2024/01/27 01:29:55;;;;;;;9.05;1.95;;;;;;;3.71;100.00;102407.63;5035971;28;20555;-82
2024/01/27 01:32:22;;;;;;;27.17;4.72;;;;;;;3.67;100.00;102402.25;5053239;28;20078;-82
2024/01/27 01:34:49;;;;;;;12.60;3.08;;;;;;;3.64;100.00;102413.34;5052027;28;20032;-83
2024/01/27 01:37:15;;;;;;;29.10;3.35;;;;;;;3.56;100.00;102415.56;5066816;28;20068;-84
2024/01/27 01:39:42;;;;;;;17.98;2.72;;;;;;;3.58;100.00;102418.22;5052017;28;20075;-84
2024/01/27 01:42:08;;;;;;;23.88;6.15;;;;;;;3.52;100.00;102417.91;5040083;28;20048;-84
2024/01/27 01:44:35;;;;;;;18.65;4.40;;;;;;;3.50;100.00;102419.56;5084534;28;20110;-83
2024/01/27 01:47:03;;;;;;;11.20;2.97;;;;;;;3.45;100.00;102420.19;5040528;28;20087;-83
2024/01/27 01:49:30;;;;;;;21.83;4.03;;;;;;;3.40;100.00;102423.38;5051370;28;20036;-83
2024/01/27 01:51:57;;;;;;;15.63;3.65;;;;;;;3.38;100.00;102423.31;5034644;28;20808;-82
2024/01/27 01:54:27;;;;;;;23.73;5.50;;;;;;;3.38;100.00;102418.16;5030142;28;20049;-84
2024/01/27 01:56:56;;;;;;;18.30;3.17;;;;;;;3.35;100.00;102415.41;5055387;28;20135;-84
2024/01/27 01:59:23;;;;;;;27.15;5.00;;;;;;;3.30;100.00;102417.75;5068146;28;20049;-83
2024/01/27 02:01:50;;;;;;;15.13;3.90;;;;;;;3.28;100.00;102415.91;5044055;28;20049;-83
2024/01/27 02:04:18;;;;;;;18.02;3.58;;;;;;;3.26;100.00;102414.94;5033447;28;20514;-83
2024/01/27 02:06:47;;;;;;;17.88;3.28;;;;;;;3.26;100.00;102414.94;5039371;28;20672;-84
2024/01/27 02:09:14;;;;;;;12.75;2.78;;;;;;;3.25;100.00;102416.66;5081327;28;20049;-83
2024/01/27 02:11:40;;;;;;;15.98;3.80;;;;;;;3.21;100.00;102422.50;5051843;28;20044;-85
2024/01/27 02:14:07;;;;;;;13.70;3.47;;;;;;;3.21;100.00;102422.50;5051664;28;20071;-84
2024/01/27 02:16:34;;;;;;;17.05;6.47;;;;;;;3.18;100.00;102417.19;5085017;28;20045;-84
2024/01/27 02:19:00;;;;;;;13.63;2.88;;;;;;;3.16;100.00;102418.78;5040817;28;20503;-82
2024/01/27 02:21:27;;;;;;;20.65;3.70;;;;;;;3.20;100.00;102428.47;5050975;28;20060;-82
2024/01/27 02:23:54;;;;;;;20.35;4.57;;;;;;;3.17;100.00;102430.00;5035156;28;20047;-84
2024/01/27 02:26:26;;;;;;;13.93;2.70;;;;;;;3.15;100.00;102422.19;5057659;28;20195;-83
2024/01/27 02:28:53;;;;;;;19.90;3.55;;;;;;;3.14;100.00;102423.88;5035632;28;20774;-84
2024/01/27 02:31:19;;;;;;;19.02;4.85;;;;;;;3.16;100.00;102429.13;5057267;28;20653;-82
2024/01/27 02:33:52;;;;;;;13.00;3.58;;;;;;;3.13;100.00;102424.69;5046482;28;20040;-81
2024/01/27 02:36:26;;;;;;;15.03;3.63;;;;;;;3.10;100.00;102421.06;5081696;28;20068;-82
2024/01/27 02:39:02;;;;;;;12.82;3.00;;;;;;;3.10;100.00;102423.66;5062872;28;20402;-84
2024/01/27 02:41:28;;;;;;;16.70;3.15;;;;;;;3.08;100.00;102418.41;5045818;28;20319;-84
2024/01/27 02:43:55;;;;;;;18.00;3.13;;;;;;;3.09;100.00;102416.69;5046571;28;20140;-82
2024/01/27 02:46:22;;;;;;;9.68;2.28;;;;;;;3.10;100.00;102424.56;5031724;28;20048;-83
2024/01/27 02:48:49;;;;;;;22.65;4.53;;;;;;;3.10;100.00;102428.81;5062573;28;20102;-82
2024/01/27 02:51:21;;;;;;;9.00;4.07;;;;;;;3.08;100.00;102427.88;5071760;28;20056;-83
2024/01/27 02:53:48;;;;;;;17.00;3.80;;;;;;;3.09;100.00;102427.03;5031465;28;20119;-82
2024/01/27 02:56:18;;;;;;;15.95;5.63;;;;;;;3.09;100.00;102419.28;5032616;28;20059;-84
2024/01/27 02:58:45;;;;;;;28.13;4.85;;;;;;;3.06;100.00;102422.59;5042807;28;20048;-83
2024/01/27 03:01:14;;;;;;;17.23;3.28;;;;;;;3.07;100.00;102424.38;5063442;28;20076;-84
2024/01/27 03:03:41;;;;;;;15.68;3.53;;;;;;;3.05;100.00;102425.09;5047939;28;20049;-84
2024/01/27 03:06:08;;;;;;;20.25;3.08;;;;;;;3.03;100.00;102431.94;5064282;28;20041;-82
2024/01/27 03:08:34;;;;;;;22.45;5.32;;;;;;;3.02;100.00;102431.03;5048227;28;20076;-83
2024/01/27 03:11:04;;;;;;;24.85;3.65;;;;;;;3.04;100.00;102444.03;5033931;28;20040;-82
2024/01/27 03:13:33;;;;;;;17.70;3.22;;;;;;;3.00;100.00;102443.00;5065839;28;20542;-83
2024/01/27 03:16:02;;;;;;;16.08;4.00;;;;;;;2.95;100.00;102455.69;5063979;28;20036;-83
2024/01/27 03:18:28;;;;;;;25.48;4.43;;;;;;;2.93;100.00;102448.66;5048681;28;20045;-82
2024/01/27 03:20:55;;;;;;;16.85;2.58;;;;;;;2.92;100.00;102458.13;5079222;28;20498;-84
2024/01/27 03:23:28;;;;;;;15.73;3.50;;;;;;;2.92;100.00;102464.97;5046777;28;20154;-83
2024/01/27 03:25:55;;;;;;;16.05;2.95;;;;;;;2.88;100.00;102465.63;5033893;28;20076;-83
2024/01/27 03:28:22;;;;;;;10.55;3.75;;;;;;;2.86;100.00;102467.28;5034124;28;20048;-83
2024/01/27 03:30:49;;;;;;;21.05;4.35;;;;;;;2.86;100.00;102475.03;5042428;28;20037;-82
2024/01/27 03:33:22;;;;;;;15.82;3.67;;;;;;;2.86;100.00;102480.22;5026371;28;20056;-84
2024/01/27 03:35:52;;;;;;;22.70;5.60;;;;;;;2.85;100.00;102471.53;5049669;28;20048;-83
2024/01/27 03:38:18;;;;;;;21.95;3.60;;;;;;;2.87;100.00;102476.78;5050579;28;20098;-83
2024/01/27 03:40:45;;;;;;;19.48;3.97;;;;;;;2.84;100.00;102477.53;5064217;28;20049;-83
2024/01/27 03:43:12;;;;;;;16.45;2.50;;;;;;;2.86;100.00;102483.69;5033713;28;20040;-82
2024/01/27 03:45:38;;;;;;;20.48;3.78;;;;;;;2.86;100.00;102486.25;5070750;28;20135;-83
2024/01/27 03:48:06;;;;;;;20.40;5.43;;;;;;;2.84;100.00;102490.44;5052663;28;20041;-82
2024/01/27 03:50:34;;;;;;;18.23;3.22;;;;;;;2.83;100.00;102488.69;5052421;28;20032;-83
2024/01/27 03:53:01;;;;;;;16.45;4.05;;;;;;;2.79;100.00;102494.50;5087741;28;20123;-83
2024/01/27 03:55:28;;;;;;;22.33;4.60;;;;;;;2.78;100.00;102493.63;5071753;28;20053;-83
2024/01/27 03:57:54;;;;;;;14.88;4.05;;;;;;;2.80;100.00;102494.59;5036979;28;20052;-83
2024/01/27 04:00:21;;;;;;;14.55;3.22;;;;;;;2.79;100.00;102499.66;5055346;28;20457;-83
2024/01/27 04:02:54;;;;;;;29.17;5.05;;;;;;;2.77;100.00;102501.31;5070744;28;20072;-84
2024/01/27 04:05:21;;;;;;;16.10;2.78;;;;;;;2.77;100.00;102498.72;5055275;28;20461;-83
2024/01/27 04:07:47;;;;;;;14.15;3.58;;;;;;;2.76;100.00;102489.16;5039387;28;20060;-83
2024/01/27 04:10:14;;;;;;;12.57;3.00;;;;;;;2.75;100.00;102496.06;5052485;28;20527;-83
2024/01/27 04:12:42;;;;;;;12.10;2.92;;;;;;;2.76;100.00;102502.09;5045846;28;20139;-83
2024/01/27 04:15:10;;;;;;;15.35;4.28;;;;;;;2.76;100.00;102502.97;5052094;28;20496;-84
2024/01/27 04:17:36;;;;;;;14.27;2.95;;;;;;;2.77;100.00;102506.47;5050576;28;20045;-83
2024/01/27 04:20:04;;;;;;;15.88;2.75;;;;;;;2.75;100.00;102511.56;5051911;28;20056;-83
2024/01/27 04:22:31;;;;;;;21.08;4.55;;;;;;;2.74;100.00;102499.44;5044837;28;20064;-82
2024/01/27 04:25:01;;;;;;;16.70;3.38;;;;;;;2.70;100.00;102496.59;5050493;28;20068;-83
2024/01/27 04:27:31;;;;;;;22.08;3.17;;;;;;;2.69;100.00;102503.47;5051338;28;20057;-83
2024/01/27 04:29:57;;;;;;;15.55;3.58;;;;;;;2.70;100.00;102506.94;5052191;28;20044;-82
2024/01/27 04:32:25;;;;;;;16.15;3.65;;;;;;;2.71;100.00;102508.72;5038019;28;20072;-83
2024/01/27 04:34:58;;;;;;;13.32;3.00;;;;;;;2.70;100.00;102512.13;5067781;28;20040;-82
2024/01/27 04:37:27;;;;;;;16.67;3.35;;;;;;;2.68;100.00;102514.63;5061999;28;20040;-82
2024/01/27 04:39:56;;;;;;;16.13;3.03;;;;;;;2.64;100.00;102512.69;5054071;28;20044;-82
2024/01/27 04:42:23;;;;;;;12.27;2.83;;;;;;;2.63;100.00;102514.41;5041507;28;20056;-82
2024/01/27 04:44:50;;;;;;;16.60;2.95;;;;;;;2.64;100.00;102521.31;5051068;28;20112;-83
2024/01/27 04:47:17;;;;;;;15.05;3.25;;;;;;;2.62;100.00;102522.94;5068623;28;20072;-82
2024/01/27 04:49:43;;;;;;;13.38;3.33;;;;;;;2.61;100.00;102523.75;5034950;28;20044;-84
2024/01/27 04:52:10;;;;;;;20.55;3.50;;;;;;;2.62;100.00;102522.94;5052434;28;20105;-83
2024/01/27 04:54:37;;;;;;;7.07;3.35;;;;;;;2.64;100.00;102523.03;5034783;28;20715;-84
2024/01/27 04:57:06;;;;;;;15.93;3.28;;;;;;;2.65;100.00;102527.41;5027661;28;20434;-82
2024/01/27 04:59:36;;;;;;;10.93;2.83;;;;;;;2.64;100.00;102530.78;5034784;28;20048;-83
2024/01/27 05:02:05;;;;;;;14.85;3.63;;;;;;;2.61;100.00;102539.25;5035229;28;20082;-84
2024/01/27 05:04:32;;;;;;;13.02;3.60;;;;;;;2.58;100.00;102541.69;5034366;28;20097;-83
2024/01/27 05:07:02;;;;;;;13.48;3.33;;;;;;;2.58;100.00;102543.38;5047249;28;20127;-82
2024/01/27 05:09:28;;;;;;;12.13;2.80;;;;;;;2.57;100.00;102550.25;5062132;28;20531;-83
2024/01/27 05:11:55;;;;;;;10.23;3.15;;;;;;;2.56;100.00;102551.06;5053013;28;20044;-83
2024/01/27 05:14:22;;;;;;;12.32;3.17;;;;;;;2.55;100.00;102551.84;5050355;28;20565;-83
2024/01/27 05:16:57;;;;;;;11.70;3.08;;;;;;;2.53;100.00;102542.22;5039629;28;20041;-82
2024/01/27 05:19:24;;;;;;;12.82;3.22;;;;;;;2.53;100.00;102537.06;5032164;28;20689;-84
2024/01/27 05:21:51;;;;;;;22.92;3.47;;;;;;;2.54;100.00;102541.44;5035174;28;20074;-83
2024/01/27 05:24:18;;;;;;;14.15;3.53;;;;;;;2.51;100.00;102536.97;5043344;28;20040;-83
2024/01/27 05:26:45;;;;;;;14.60;3.97;;;;;;;2.47;100.00;102548.84;5052095;28;20162;-83
2024/01/27 05:29:14;;;;;;;25.52;4.00;;;;;;;2.47;100.00;102556.59;5047414;28;20049;-84
2024/01/27 05:31:44;;;;;;;13.25;2.90;;;;;;;2.44;100.00;102566.78;5033764;28;20040;-83
2024/01/27 05:34:12;;;;;;;11.07;2.50;;;;;;;2.39;100.00;102569.94;5063228;28;20070;-83
2024/01/27 05:36:40;;;;;;;16.15;5.15;;;;;;;2.40;100.00;102566.50;5049534;28;20055;-84
2024/01/27 05:39:07;;;;;;;8.05;3.42;;;;;;;2.37;100.00;102561.19;5034881;28;20404;-84
2024/01/27 05:41:33;;;;;;;12.18;2.70;;;;;;;2.33;100.00;102561.81;5049866;28;20048;-84
2024/01/27 05:44:02;;;;;;;11.35;3.05;;;;;;;2.34;100.00;102556.75;5052879;28;20103;-81
2024/01/27 05:46:29;;;;;;;12.05;3.20;;;;;;;2.37;100.00;102569.81;5050850;28;20055;-82
2024/01/27 05:49:01;;;;;;;14.55;2.97;;;;;;;2.36;100.00;102569.75;5031012;28;20048;-83
2024/01/27 05:51:30;;;;;;;23.98;5.55;;;;;;;2.40;100.00;102575.19;5063357;28;20093;-82
2024/01/27 05:53:57;;;;;;;10.18;2.63;;;;;;;2.47;100.00;102566.06;5052961;28;20747;-83
2024/01/27 05:56:26;;;;;;;10.48;2.90;;;;;;;2.47;100.00;102566.94;5036110;28;20048;-81
2024/01/27 05:58:53;;;;;;;12.45;3.20;;;;;;;2.47;100.00;102564.34;5066154;28;20044;-83
2024/01/27 06:01:22;;;;;;;16.98;3.15;;;;;;;2.51;100.00;102570.59;5031934;28;20140;-83
2024/01/27 06:03:48;;;;;;;14.57;3.13;;;;;;;2.49;100.00;102579.97;5050647;28;20072;-82
2024/01/27 06:06:15;;;;;;;13.20;3.08;;;;;;;2.53;100.00;102574.16;5047810;28;20088;-83
2024/01/27 06:08:42;;;;;;;13.80;2.35;;;;;;;2.54;100.00;102568.16;5050104;28;20582;-82
2024/01/27 06:11:09;;;;;;;13.77;3.53;;;;;;;2.60;100.00;102586.59;5049931;28;20055;-83
2024/01/27 06:13:37;;;;;;;14.70;3.45;;;;;;;2.60;100.00;102581.44;5047489;28;20072;-84
2024/01/27 06:16:09;;;;;;;18.23;3.65;;;;;;;2.63;100.00;102586.78;5052874;28;20131;-83
2024/01/27 06:18:39;;;;;;;8.88;4.13;;;;;;;2.69;100.00;102595.69;5048148;28;20055;-83
2024/01/27 06:21:08;;;;;;;15.32;3.38;;;;;;;2.70;100.00;102597.44;5045701;28;20045;-84
2024/01/27 06:23:38;;;;;;;12.25;4.15;;;;;;;2.66;100.00;102588.66;5069953;28;20052;-83
2024/01/27 06:26:11;;;;;;;18.35;2.95;;;;;;;2.64;100.00;102585.09;5049749;28;20055;-82
2024/01/27 06:28:37;;;;;;;13.40;2.67;;;;;;;2.64;100.00;102585.97;5049484;28;20045;-82
2024/01/27 06:31:05;;;;;;;15.57;3.00;;;;;;;2.60;100.00;102596.06;5045025;28;20041;-82
2024/01/27 06:33:33;;;;;;;18.33;2.40;;;;;;;2.61;100.00;102595.28;5032080;28;20446;-82
2024/01/27 06:36:00;;;;;;;18.83;4.43;;;;;;;2.67;100.00;102602.47;5067257;28;20049;-83
2024/01/27 06:38:28;;;;;;;18.63;3.45;;;;;;;2.65;100.00;102605.84;5031858;28;20052;-82
2024/01/27 06:40:55;;;;;;;12.23;2.22;;;;;;;2.65;100.00;102616.19;5024372;28;20045;-83
2024/01/27 06:43:24;;;;;;;15.30;3.13;;;;;;;2.64;100.00;102616.13;5037195;28;20045;-82
2024/01/27 06:45:50;;;;;;;14.65;2.95;;;;;;;2.64;100.00;102617.00;5054724;28;20054;-83
2024/01/27 06:48:17;;;;;;;12.23;2.42;;;;;;;2.67;100.00;102617.97;5064191;28;20052;-82
2024/01/27 06:50:44;;;;;;;13.65;3.70;;;;;;;2.70;100.00;102620.72;5037197;28;20448;-83
2024/01/27 06:53:10;;;;;;;14.80;3.97;;;;;;;2.68;100.00;102630.13;5041856;28;20045;-84
2024/01/27 06:55:37;;;;;;;9.80;2.25;;;;;;;2.69;100.00;102632.78;5032101;28;20056;-83
2024/01/27 06:58:04;;;;;;;21.67;4.57;;;;;;;2.63;100.00;102648.84;5044263;28;20128;-83
2024/01/27 07:00:33;;;;;;;11.75;3.40;;;;;;;2.64;100.00;102647.16;5045837;28;20043;-83
2024/01/27 07:03:00;;;;;;;16.42;2.80;;;;;;;2.64;100.00;102648.03;5064721;28;20072;-84
2024/01/27 07:05:27;;;;;;;16.85;2.97;;;;;;;2.72;100.00;102645.00;5054865;28;20044;-84
2024/01/27 07:07:56;;;;;;;15.13;3.17;;;;;;;2.75;100.00;102646.06;5033800;28;20045;-83
2024/01/27 07:10:26;;;;;;;16.73;2.47;;;;;;;2.78;100.00;102641.03;5032356;28;20048;-83
2024/01/27 07:12:55;;;;;;;40.85;3.65;;;;;;;2.81;100.00;102653.25;5029191;28;20768;-83
2024/01/27 07:15:23;;;;;;;22.05;4.80;;;;;;;2.86;100.00;102656.09;5048828;28;20044;-83
2024/01/27 07:17:51;;;;;;;12.02;3.10;;;;;;;2.87;100.00;102653.59;5049462;28;20052;-82
2024/01/27 07:20:19;;;;;;;6.50;1.73;;;;;;;2.88;100.00;102655.38;5032290;28;20539;-83
2024/01/27 07:22:46;;;;;;;11.50;2.65;;;;;;;2.91;100.00;102654.66;5074966;28;20049;-84
2024/01/27 07:25:13;;;;;;;11.45;2.50;;;;;;;2.91;100.00;102654.66;5050995;28;20443;-83
2024/01/27 07:27:40;;;;;;;17.25;2.75;;;;;;;2.91;100.00;102657.25;5039450;28;20040;-83
2024/01/27 07:30:09;;;;;;;12.20;2.70;;;;;;;2.92;100.00;102657.31;5035149;28;20041;-82
2024/01/27 07:32:36;;;;;;;13.20;3.97;;;;;;;2.93;100.00;102653.03;5052417;28;20499;-81
2024/01/27 07:35:03;;;;;;;9.55;2.63;;;;;;;2.96;100.00;102663.56;5055738;28;20132;-83
2024/01/27 07:37:29;;;;;;;12.10;3.20;;;;;;;2.95;100.00;102666.97;5043275;28;20072;-82
2024/01/27 07:39:56;;;;;;;12.82;3.45;;;;;;;2.96;100.00;102661.84;5036112;28;20139;-83
2024/01/27 07:42:22;;;;;;;11.30;3.17;;;;;;;3.01;100.00;102668.97;5034856;28;20129;-84
2024/01/27 07:44:51;;;;;;;21.58;3.00;;;;;;;3.02;100.00;102674.22;5054288;28;20044;-83
2024/01/27 07:47:18;;;;;;;12.05;4.35;;;;;;;3.04;100.00;102677.81;5033688;28;20053;-82
2024/01/27 07:49:45;;;;;;;11.52;3.15;;;;;;;3.05;100.00;102671.81;5055269;28;20056;-83
2024/01/27 07:52:12;;;;;;;9.75;3.53;;;;;;;3.07;100.00;102672.78;5063878;28;20101;-83
2024/01/27 07:54:40;;;;;;;21.98;3.75;;;;;;;3.09;100.00;102678.03;5053015;28;20132;-82
2024/01/27 07:57:11;;;;;;;14.65;2.40;;;;;;;3.14;100.00;102679.19;5052780;28;20681;-83
2024/01/27 07:59:38;;;;;;;13.20;3.67;;;;;;;3.17;100.00;102681.94;5053335;28;20068;-82
2024/01/27 08:02:06;;;;;;;10.63;3.55;;;;;;;3.19;100.00;102685.50;5053174;28;20791;-82
2024/01/27 08:04:33;;;;;;;21.38;4.10;;;;;;;3.27;100.00;102684.22;5054029;28;20690;-83
2024/01/27 08:07:05;;;;;;;12.57;3.75;;;;;;;3.28;100.00;102679.94;5085816;28;20057;-83
2024/01/27 08:09:32;;;;;;;9.95;2.28;;;;;;;3.30;100.00;102676.63;5065995;28;20048;-83
2024/01/27 08:12:02;;;;;;;15.70;3.50;;;;;;;3.30;100.00;102671.44;5030284;28;20040;-82
2024/01/27 08:14:30;;;;;;;11.88;2.90;;;;;;;3.34;100.00;102680.28;5079326;28;20049;-84
2024/01/27 08:17:00;;;;;;;17.02;3.22;;;;;;;3.38;100.00;102686.50;5088301;28;20123;-82
2024/01/27 08:19:27;;;;;;;10.50;3.88;;;;;;;3.39;100.00;102693.44;5070399;28;20133;-84
2024/01/27 08:21:54;;;;;;;17.17;4.95;;;;;;;3.40;100.00;102695.22;5038087;28;20049;-82
2024/01/27 08:24:23;;;;;;;11.38;2.80;;;;;;;3.42;100.00;102693.63;5009869;28;20041;-82
2024/01/27 08:26:51;;;;;;;14.70;3.67;;;;;;;3.44;100.00;102689.41;5048255;28;20052;-81
2024/01/27 08:29:21;;;;;;;12.88;3.33;;;;;;;3.46;100.00;102692.97;5043823;28;20049;-84
2024/01/27 08:31:48;;;;;;;16.83;3.28;;;;;;;3.46;100.00;102687.78;5047315;28;20049;-84
2024/01/27 08:34:17;;;;;;;9.93;4.25;;;;;;;3.48;100.00;102692.25;5037977;28;20055;-83
2024/01/27 08:36:44;;;;;;;19.55;3.63;;;;;;;3.49;100.00;102695.72;5057861;28;20062;-84
2024/01/27 08:39:31;;;;;;;10.40;3.70;;;;;;;3.53;100.00;102704.53;5017307;28;20098;-82
2024/01/27 08:41:57;;;;;;;19.88;3.70;;;;;;;3.57;100.00;102701.31;5028479;28;20055;-84
2024/01/27 08:44:24;;;;;;;16.67;3.90;;;;;;;3.58;100.00;102708.25;5060673;28;20170;-83
2024/01/27 08:46:52;;;;;;;15.35;4.20;;;;;;;3.61;100.00;102709.31;5031714;28;20045;-83
2024/01/27 08:49:19;;;;;;;8.93;3.90;;;;;;;3.64;100.00;102699.13;5046671;28;20475;-83
2024/01/27 08:51:45;;;;;;;16.67;4.22;;;;;;;3.68;100.00;102704.44;5017240;28;20409;-83
2024/01/27 08:54:12;;;;;;;14.20;4.15;;;;;;;3.71;100.00;102704.63;5012809;28;20114;-84
2024/01/27 08:56:42;;;;;;;11.15;4.53;;;;;;;3.73;100.00;102703.91;5029438;28;20107;-84
2024/01/27 08:59:09;;;;;;;13.52;3.78;;;;;;;3.78;100.00;102711.88;5018733;28;20041;-83
2024/01/27 09:01:36;;;;;;;13.40;4.13;;;;;;;3.82;100.00;102711.28;5032158;28;20057;-83
2024/01/27 09:04:02;;;;;;;17.00;4.22;;;;;;;3.81;100.00;102712.94;5018044;28;20139;-82
2024/01/27 09:06:29;;;;;;;15.50;4.00;;;;;;;3.84;100.00;102712.22;5034922;28;20037;-83
2024/01/27 09:08:56;;;;;;;14.98;4.28;;;;;;;3.94;100.00;102721.38;5012863;28;20056;-82
2024/01/27 09:11:23;;;;;;;15.13;4.65;;;;;;;3.96;100.00;102718.06;5034614;28;20037;-81
2024/01/27 09:13:51;;;;;;;15.50;5.00;;;;;;;4.03;100.00;102726.13;5027329;28;20068;-83
2024/01/27 09:16:19;;;;;;;9.43;4.85;;;;;;;4.10;100.00;102725.63;4998800;28;20041;-84
2024/01/27 09:18:46;;;;;;;14.02;4.85;;;;;;;4.12;100.00;102731.81;5047242;28;20056;-83
2024/01/27 09:21:14;;;;;;;18.70;4.20;;;;;;;4.20;100.00;102732.16;5016711;28;20073;-82
2024/01/27 09:23:41;;;;;;;15.30;4.80;;;;;;;4.22;100.00;102733.16;5042205;28;20041;-84
2024/01/27 09:26:08;;;;;;;16.75;5.07;;;;;;;4.22;100.00;102733.16;5032381;28;20041;-83
2024/01/27 09:28:37;;;;;;;12.80;3.92;;;;;;;4.25;100.00;102733.28;5019332;28;20053;-82
2024/01/27 09:31:07;;;;;;;13.00;4.80;;;;;;;4.32;100.00;102731.91;5058743;28;20128;-83
2024/01/27 09:33:35;;;;;;;28.02;5.78;;;;;;;4.34;100.00;102731.19;5034885;28;20127;-82
2024/01/27 09:36:02;;;;;;;15.88;3.85;;;;;;;4.40;100.00;102726.28;5054522;28;20051;-83
2024/01/27 09:38:32;;;;;;;13.13;4.22;;;;;;;4.45;100.00;102724.81;5015135;28;20581;-83
2024/01/27 09:40:59;;;;;;;18.98;5.20;;;;;;;4.49;100.00;102730.16;5031433;28;20393;-83
2024/01/27 09:43:29;;;;;;;11.10;4.07;;;;;;;4.50;100.00;102731.91;5046103;28;20155;-81
2024/01/27 09:45:55;;;;;;;16.85;4.95;;;;;;;4.57;100.00;102747.88;5031763;28;20428;-84
2024/01/27 09:48:22;;;;;;;11.25;5.60;;;;;;;4.58;100.00;102752.25;5013269;28;20052;-83
2024/01/27 09:50:51;;;;;;;12.15;5.15;;;;;;;4.64;100.00;102754.25;5033961;28;20033;-81
2024/01/27 09:53:18;;;;;;;19.13;6.57;;;;;;;4.62;100.00;102761.94;5021228;28;20065;-81
2024/01/27 09:55:45;;;;;;;13.63;4.75;;;;;;;4.68;100.00;102758.78;5048294;28;20048;-82
2024/01/27 09:58:15;;;;;;;13.27;4.47;;;;;;;4.70;100.00;102751.97;5038766;28;20049;-83
2024/01/27 10:00:48;;;;;;;12.85;5.10;;;;;;;4.77;100.00;102755.75;5031337;28;20041;-82
2024/01/27 10:03:16;;;;;;;17.85;6.70;;;;;;;4.76;100.00;102753.97;5033944;28;20041;-83
2024/01/27 10:05:46;;;;;;;13.63;6.00;;;;;;;4.82;100.00;102753.38;5029338;28;20043;-84
2024/01/27 10:08:12;;;;;;;18.55;6.45;;;;;;;4.84;100.00;102751.72;5024694;28;20080;-81
2024/01/27 10:10:39;;;;;;;16.00;5.43;;;;;;;4.90;100.00;102768.50;5015876;28;20045;-84
2024/01/27 10:13:15;;;;;;;29.90;5.65;;;;;;;4.94;100.00;102757.47;5017934;28;20144;-84
2024/01/27 10:15:41;;;;;;;16.98;4.80;;;;;;;4.99;100.00;102759.38;5010853;28;20041;-83
2024/01/27 10:18:12;;;;;;;14.68;5.05;;;;;;;5.03;100.00;102763.91;5013289;28;20052;-82
2024/01/27 10:20:42;;;;;;;12.15;4.22;;;;;;;5.07;100.00;102761.53;5049609;28;20057;-83
2024/01/27 10:23:13;;;;;;;23.13;6.45;;;;;;;5.12;100.00;102766.94;5027013;28;20033;-81
2024/01/27 10:25:41;;;;;;;15.43;5.20;;;;;;;5.17;100.00;102759.38;5031095;28;20463;-84
2024/01/27 10:28:09;;;;;;;15.75;5.50;;;;;;;5.24;100.00;102761.44;5000008;28;20044;-83
2024/01/27 10:30:37;;;;;;;19.83;5.38;;;;;;;5.29;100.00;102759.94;5014057;28;20169;-82
2024/01/27 10:33:05;;;;;;;16.52;5.50;;;;;;;5.31;100.00;102766.09;5049496;28;20041;-82
2024/01/27 10:35:33;;;;;;;9.75;3.70;;;;;;;5.42;100.00;102771.78;5050765;28;20049;-82
2024/01/27 10:37:59;;;;;;;10.43;4.10;;;;;;;5.45;100.00;102764.16;5012042;28;21213;-81
2024/01/27 10:40:27;;;;;;;13.63;5.65;;;;;;;5.53;100.00;102764.47;5010277;28;20140;-83
2024/01/27 10:43:19;;;;;;;10.95;4.80;;;;;;;5.51;100.00;102764.41;5042473;28;20125;-84
2024/01/27 10:45:45;;;;;;;13.30;5.00;;;;;;;5.55;100.00;102768.06;5007719;28;20068;-81
2024/01/27 10:48:14;;;;;;;17.70;4.55;;;;;;;5.61;100.00;102766.63;5025352;28;20136;-81
2024/01/27 10:50:42;;;;;;;15.13;5.07;;;;;;;5.62;100.00;102763.22;5022423;28;20087;-83
2024/01/27 10:53:24;;;;;;;19.98;6.55;;;;;;;5.66;100.00;102764.25;5034129;28;20076;-82
2024/01/27 10:55:56;;;;;;;14.57;4.15;;;;;;;5.66;100.00;102761.66;5034631;28;20456;-83
2024/01/27 10:58:31;;;;;;;15.30;5.15;;;;;;;5.71;100.00;102756.63;5004877;28;20107;-83
2024/01/27 11:01:00;;;;;;;13.32;4.97;;;;;;;5.73;100.00;102752.41;5015110;28;20169;-84
2024/01/27 11:03:29;;;;;;;12.80;5.30;;;;;;;5.79;100.00;102752.69;5047196;28;20049;-82
2024/01/27 11:06:00;;;;;;;23.77;5.32;;;;;;;5.85;100.00;102744.28;5019394;28;20045;-82
2024/01/27 11:08:29;;;;;;;13.20;5.10;;;;;;;5.83;100.00;102732.91;5018724;28;20075;-83
2024/01/27 11:10:59;;;;;;;16.15;6.25;;;;;;;5.82;100.00;102729.44;5027629;28;20051;-83
2024/01/27 11:13:28;;;;;;;12.10;5.22;;;;;;;5.85;100.00;102731.28;5065445;28;20052;-84
2024/01/27 11:15:55;;;;;;;20.05;6.65;;;;;;;5.87;100.00;102730.53;5063384;28;20049;-84
2024/01/27 11:18:22;;;;;;;12.32;4.10;;;;;;;5.94;100.00;102734.28;5062921;28;20076;-83
2024/01/27 11:21:00;;;;;;;16.35;5.05;;;;;;;5.90;100.00;102735.84;5022840;28;20056;-83